Saint Louis, Missouri
Traffic Map
Current Weather Conditions
Saint Louis, Missouri
Clear Haze
Clear
47°
Feels Like: 47°
Wind Chill: 47° Ceiling: Unl
Heat Index: 47° Visibility: 2.5mi
Dew Point: 46° Wind: 0mph
Humidity: 97% Direction: ° ()
Pressure: 30.27in Gusts: 0mph
Raw Report DataKCPS 230833Z AUTO 00000KT 2 1/2SM BR CLR 08/08 A3027 RMK AO2 T00830078 TSNO
Traffic Incident Summary
Active as of:
Severity:
Category:
InformationThere was an issue retrieving the traffic information for this location. Please try a different location or try again shortly.
Advertisements
Track Severe Weather on mobile